sensor_id;sensor_type;location;lat;lon;timestamp;temperature;humidity
33095;DHT22;19459;53.044;8.910;2023-09-18T00:01:59;18.70;99.90
33095;DHT22;19459;53.044;8.910;2023-09-18T00:04:25;18.70;99.90
33095;DHT22;19459;53.044;8.910;2023-09-18T00:06:51;18.80;99.90
33095;DHT22;19459;53.044;8.910;2023-09-18T00:09:17;18.90;99.90
33095;DHT22;19459;53.044;8.910;2023-09-18T00:11:42;18.90;99.90
33095;DHT22;19459;53.044;8.910;2023-09-18T00:14:08;18.90;99.90
33095;DHT22;19459;53.044;8.910;2023-09-18T00:16:35;18.90;99.90
33095;DHT22;19459;53.044;8.910;2023-09-18T00:19:01;18.90;99.90
33095;DHT22;19459;53.044;8.910;2023-09-18T00:21:28;18.90;99.90
33095;DHT22;19459;53.044;8.910;2023-09-18T00:23:56;18.90;99.90
33095;DHT22;19459;53.044;8.910;2023-09-18T00:26:24;18.90;99.90
33095;DHT22;19459;53.044;8.910;2023-09-18T00:28:50;18.90;99.90
33095;DHT22;19459;53.044;8.910;2023-09-18T00:31:16;18.80;99.90
33095;DHT22;19459;53.044;8.910;2023-09-18T00:33:41;18.90;99.90
33095;DHT22;19459;53.044;8.910;2023-09-18T00:36:07;18.80;99.90
33095;DHT22;19459;53.044;8.910;2023-09-18T00:38:33;18.80;99.90
33095;DHT22;19459;53.044;8.910;2023-09-18T00:40:59;18.80;99.90
33095;DHT22;19459;53.044;8.910;2023-09-18T00:43:24;18.70;99.90
33095;DHT22;19459;53.044;8.910;2023-09-18T00:45:50;18.70;99.90
33095;DHT22;19459;53.044;8.910;2023-09-18T00:48:16;18.70;99.90
33095;DHT22;19459;53.044;8.910;2023-09-18T00:50:44;18.70;99.90
33095;DHT22;19459;53.044;8.910;2023-09-18T00:53:14;18.70;99.90
33095;DHT22;19459;53.044;8.910;2023-09-18T00:55:44;18.60;99.90
33095;DHT22;19459;53.044;8.910;2023-09-18T00:58:10;18.70;99.90
33095;DHT22;19459;53.044;8.910;2023-09-18T01:00:36;18.60;99.90
33095;DHT22;19459;53.044;8.910;2023-09-18T01:03:03;18.60;99.90
33095;DHT22;19459;53.044;8.910;2023-09-18T01:05:34;18.60;99.90
33095;DHT22;19459;53.044;8.910;2023-09-18T01:08:01;18.60;99.90
33095;DHT22;19459;53.044;8.910;2023-09-18T01:10:36;18.70;99.90
33095;DHT22;19459;53.044;8.910;2023-09-18T01:13:37;18.70;99.90
33095;DHT22;19459;53.044;8.910;2023-09-18T01:16:10;18.70;99.90
33095;DHT22;19459;53.044;8.910;2023-09-18T01:19:00;18.60;99.90
33095;DHT22;19459;53.044;8.910;2023-09-18T01:21:28;18.70;99.90
33095;DHT22;19459;53.044;8.910;2023-09-18T01:23:54;18.70;99.90
33095;DHT22;19459;53.044;8.910;2023-09-18T01:26:21;18.60;99.90
33095;DHT22;19459;53.044;8.910;2023-09-18T01:28:47;18.60;99.90
33095;DHT22;19459;53.044;8.910;2023-09-18T01:31:12;18.60;99.90
33095;DHT22;19459;53.044;8.910;2023-09-18T01:33:38;18.60;99.90
33095;DHT22;19459;53.044;8.910;2023-09-18T01:36:07;18.60;99.90
33095;DHT22;19459;53.044;8.910;2023-09-18T01:38:35;18.60;99.90
33095;DHT22;19459;53.044;8.910;2023-09-18T01:41:01;18.60;99.90
33095;DHT22;19459;53.044;8.910;2023-09-18T01:43:27;18.60;99.90
33095;DHT22;19459;53.044;8.910;2023-09-18T01:45:53;18.70;99.90
33095;DHT22;19459;53.044;8.910;2023-09-18T01:48:20;18.70;99.90
33095;DHT22;19459;53.044;8.910;2023-09-18T01:50:46;18.70;99.90
33095;DHT22;19459;53.044;8.910;2023-09-18T01:53:11;18.70;99.90
33095;DHT22;19459;53.044;8.910;2023-09-18T01:55:37;18.60;99.90
33095;DHT22;19459;53.044;8.910;2023-09-18T01:58:03;18.60;99.90
33095;DHT22;19459;53.044;8.910;2023-09-18T02:00:29;18.60;99.90
33095;DHT22;19459;53.044;8.910;2023-09-18T02:02:54;18.50;99.90
33095;DHT22;19459;53.044;8.910;2023-09-18T02:05:20;18.50;99.90
33095;DHT22;19459;53.044;8.910;2023-09-18T02:07:46;18.50;99.90
33095;DHT22;19459;53.044;8.910;2023-09-18T02:10:12;18.50;99.90
33095;DHT22;19459;53.044;8.910;2023-09-18T02:12:38;18.50;99.90
33095;DHT22;19459;53.044;8.910;2023-09-18T02:15:06;18.50;99.90
33095;DHT22;19459;53.044;8.910;2023-09-18T02:17:32;18.50;99.90
33095;DHT22;19459;53.044;8.910;2023-09-18T02:19:58;18.50;99.90
33095;DHT22;19459;53.044;8.910;2023-09-18T02:22:32;18.50;99.90
33095;DHT22;19459;53.044;8.910;2023-09-18T02:24:58;18.40;99.90
33095;DHT22;19459;53.044;8.910;2023-09-18T02:27:24;18.40;99.90
33095;DHT22;19459;53.044;8.910;2023-09-18T02:29:50;18.30;99.90
33095;DHT22;19459;53.044;8.910;2023-09-18T02:32:18;18.40;99.90
33095;DHT22;19459;53.044;8.910;2023-09-18T02:34:44;18.30;99.90
33095;DHT22;19459;53.044;8.910;2023-09-18T02:37:10;18.30;99.90
33095;DHT22;19459;53.044;8.910;2023-09-18T02:39:36;18.30;99.90
33095;DHT22;19459;53.044;8.910;2023-09-18T02:42:01;18.30;99.90
33095;DHT22;19459;53.044;8.910;2023-09-18T02:44:27;18.30;99.90
33095;DHT22;19459;53.044;8.910;2023-09-18T02:46:53;18.30;99.90
33095;DHT22;19459;53.044;8.910;2023-09-18T02:49:19;18.30;99.90
33095;DHT22;19459;53.044;8.910;2023-09-18T02:51:46;18.30;99.90
33095;DHT22;19459;53.044;8.910;2023-09-18T02:54:11;18.20;99.90
33095;DHT22;19459;53.044;8.910;2023-09-18T02:56:37;18.20;99.90
33095;DHT22;19459;53.044;8.910;2023-09-18T02:59:03;18.20;99.90
33095;DHT22;19459;53.044;8.910;2023-09-18T03:01:29;18.20;99.90
33095;DHT22;19459;53.044;8.910;2023-09-18T03:03:55;18.20;99.90
33095;DHT22;19459;53.044;8.910;2023-09-18T03:06:21;18.20;99.90
33095;DHT22;19459;53.044;8.910;2023-09-18T03:08:47;18.20;99.90
33095;DHT22;19459;53.044;8.910;2023-09-18T03:11:14;18.20;99.90
33095;DHT22;19459;53.044;8.910;2023-09-18T03:13:47;18.20;99.90
33095;DHT22;19459;53.044;8.910;2023-09-18T03:16:13;18.20;99.90
33095;DHT22;19459;53.044;8.910;2023-09-18T03:18:39;18.20;99.90
33095;DHT22;19459;53.044;8.910;2023-09-18T03:21:05;18.20;99.90
33095;DHT22;19459;53.044;8.910;2023-09-18T03:23:30;18.20;99.90
33095;DHT22;19459;53.044;8.910;2023-09-18T03:25:56;18.20;99.90
33095;DHT22;19459;53.044;8.910;2023-09-18T03:28:22;18.20;99.90
33095;DHT22;19459;53.044;8.910;2023-09-18T03:30:49;18.20;99.90
33095;DHT22;19459;53.044;8.910;2023-09-18T03:33:15;18.20;99.90
33095;DHT22;19459;53.044;8.910;2023-09-18T03:35:48;18.20;99.90
33095;DHT22;19459;53.044;8.910;2023-09-18T03:38:14;18.20;99.90
33095;DHT22;19459;53.044;8.910;2023-09-18T03:40:40;18.20;99.90
33095;DHT22;19459;53.044;8.910;2023-09-18T03:43:07;18.10;99.90
33095;DHT22;19459;53.044;8.910;2023-09-18T03:45:33;18.20;99.90
33095;DHT22;19459;53.044;8.910;2023-09-18T03:47:59;18.10;99.90
33095;DHT22;19459;53.044;8.910;2023-09-18T03:50:24;18.10;99.90
33095;DHT22;19459;53.044;8.910;2023-09-18T03:52:55;18.10;99.90
33095;DHT22;19459;53.044;8.910;2023-09-18T03:55:21;18.20;99.90
33095;DHT22;19459;53.044;8.910;2023-09-18T03:57:46;18.20;99.90
33095;DHT22;19459;53.044;8.910;2023-09-18T04:00:14;18.20;99.90
33095;DHT22;19459;53.044;8.910;2023-09-18T04:02:40;18.20;99.90
33095;DHT22;19459;53.044;8.910;2023-09-18T04:05:06;18.20;99.90
33095;DHT22;19459;53.044;8.910;2023-09-18T04:07:32;18.20;99.90
33095;DHT22;19459;53.044;8.910;2023-09-18T04:09:58;18.20;99.90
33095;DHT22;19459;53.044;8.910;2023-09-18T04:12:24;18.30;99.90
33095;DHT22;19459;53.044;8.910;2023-09-18T04:14:50;18.20;99.90
33095;DHT22;19459;53.044;8.910;2023-09-18T04:17:16;18.20;99.90
33095;DHT22;19459;53.044;8.910;2023-09-18T04:19:42;18.20;99.90
33095;DHT22;19459;53.044;8.910;2023-09-18T04:22:09;18.30;99.90
33095;DHT22;19459;53.044;8.910;2023-09-18T04:24:34;18.30;99.90
33095;DHT22;19459;53.044;8.910;2023-09-18T04:27:01;18.30;99.90
33095;DHT22;19459;53.044;8.910;2023-09-18T04:29:27;18.30;99.90
33095;DHT22;19459;53.044;8.910;2023-09-18T04:31:53;18.30;99.90
33095;DHT22;19459;53.044;8.910;2023-09-18T04:34:20;18.40;99.90
33095;DHT22;19459;53.044;8.910;2023-09-18T04:36:47;18.40;99.90
33095;DHT22;19459;53.044;8.910;2023-09-18T04:39:13;18.50;99.90
33095;DHT22;19459;53.044;8.910;2023-09-18T04:41:39;18.50;99.90
33095;DHT22;19459;53.044;8.910;2023-09-18T04:44:05;18.50;99.90
33095;DHT22;19459;53.044;8.910;2023-09-18T04:46:33;18.50;99.90
33095;DHT22;19459;53.044;8.910;2023-09-18T04:49:00;18.60;99.90
33095;DHT22;19459;53.044;8.910;2023-09-18T04:51:30;18.60;99.90
33095;DHT22;19459;53.044;8.910;2023-09-18T04:53:57;18.70;99.90
33095;DHT22;19459;53.044;8.910;2023-09-18T04:56:23;18.70;99.90
33095;DHT22;19459;53.044;8.910;2023-09-18T04:58:51;18.70;99.90
33095;DHT22;19459;53.044;8.910;2023-09-18T05:01:17;18.80;99.90
33095;DHT22;19459;53.044;8.910;2023-09-18T05:03:43;18.80;99.90
33095;DHT22;19459;53.044;8.910;2023-09-18T05:06:08;18.80;99.90
33095;DHT22;19459;53.044;8.910;2023-09-18T05:08:34;18.90;99.90
33095;DHT22;19459;53.044;8.910;2023-09-18T05:11:00;18.90;99.90
33095;DHT22;19459;53.044;8.910;2023-09-18T05:13:26;18.80;99.90
33095;DHT22;19459;53.044;8.910;2023-09-18T05:15:52;18.90;99.90
33095;DHT22;19459;53.044;8.910;2023-09-18T05:18:20;18.80;99.90
33095;DHT22;19459;53.044;8.910;2023-09-18T05:20:47;18.90;99.90
33095;DHT22;19459;53.044;8.910;2023-09-18T05:23:12;18.90;99.90
33095;DHT22;19459;53.044;8.910;2023-09-18T05:25:38;19.00;99.90
33095;DHT22;19459;53.044;8.910;2023-09-18T05:28:07;19.00;99.90
33095;DHT22;19459;53.044;8.910;2023-09-18T05:30:34;19.10;99.90
33095;DHT22;19459;53.044;8.910;2023-09-18T05:33:04;19.10;99.90
33095;DHT22;19459;53.044;8.910;2023-09-18T05:35:34;19.00;99.90
33095;DHT22;19459;53.044;8.910;2023-09-18T05:38:04;19.00;99.90
33095;DHT22;19459;53.044;8.910;2023-09-18T05:40:30;19.00;99.90
33095;DHT22;19459;53.044;8.910;2023-09-18T05:42:57;19.00;99.90
33095;DHT22;19459;53.044;8.910;2023-09-18T05:45:23;19.10;99.90
33095;DHT22;19459;53.044;8.910;2023-09-18T05:47:49;19.10;99.90
33095;DHT22;19459;53.044;8.910;2023-09-18T05:50:15;19.10;99.90
33095;DHT22;19459;53.044;8.910;2023-09-18T05:52:46;19.20;99.90
33095;DHT22;19459;53.044;8.910;2023-09-18T05:55:14;19.20;99.90
33095;DHT22;19459;53.044;8.910;2023-09-18T05:57:40;19.20;99.90
33095;DHT22;19459;53.044;8.910;2023-09-18T06:00:07;19.20;99.90
33095;DHT22;19459;53.044;8.910;2023-09-18T06:02:38;19.20;99.90
33095;DHT22;19459;53.044;8.910;2023-09-18T06:05:05;19.20;99.90
33095;DHT22;19459;53.044;8.910;2023-09-18T06:07:32;19.20;99.90
33095;DHT22;19459;53.044;8.910;2023-09-18T06:09:58;19.10;99.90
33095;DHT22;19459;53.044;8.910;2023-09-18T06:12:24;19.00;99.90
33095;DHT22;19459;53.044;8.910;2023-09-18T06:14:51;19.10;99.90
33095;DHT22;19459;53.044;8.910;2023-09-18T06:17:17;19.00;99.90
33095;DHT22;19459;53.044;8.910;2023-09-18T06:19:44;19.00;99.90
33095;DHT22;19459;53.044;8.910;2023-09-18T06:22:11;19.00;99.90
33095;DHT22;19459;53.044;8.910;2023-09-18T06:24:38;19.00;99.90
33095;DHT22;19459;53.044;8.910;2023-09-18T06:27:04;19.10;99.90
33095;DHT22;19459;53.044;8.910;2023-09-18T06:29:31;19.10;99.90
33095;DHT22;19459;53.044;8.910;2023-09-18T06:32:00;19.10;99.90
33095;DHT22;19459;53.044;8.910;2023-09-18T06:34:27;19.10;99.90
33095;DHT22;19459;53.044;8.910;2023-09-18T06:36:55;19.20;99.90
33095;DHT22;19459;53.044;8.910;2023-09-18T06:39:21;19.20;99.90
33095;DHT22;19459;53.044;8.910;2023-09-18T06:41:49;19.30;99.90
33095;DHT22;19459;53.044;8.910;2023-09-18T06:44:15;19.30;99.90
33095;DHT22;19459;53.044;8.910;2023-09-18T06:46:40;19.40;99.90
33095;DHT22;19459;53.044;8.910;2023-09-18T06:49:07;19.40;99.90
33095;DHT22;19459;53.044;8.910;2023-09-18T06:51:32;19.40;99.90
33095;DHT22;19459;53.044;8.910;2023-09-18T06:53:58;19.40;99.90
33095;DHT22;19459;53.044;8.910;2023-09-18T06:56:25;19.40;99.90
33095;DHT22;19459;53.044;8.910;2023-09-18T06:58:51;19.40;99.90
33095;DHT22;19459;53.044;8.910;2023-09-18T07:01:20;19.40;99.90
33095;DHT22;19459;53.044;8.910;2023-09-18T07:03:47;19.30;99.90
33095;DHT22;19459;53.044;8.910;2023-09-18T07:06:16;19.30;99.90
33095;DHT22;19459;53.044;8.910;2023-09-18T07:08:44;19.30;99.90
33095;DHT22;19459;53.044;8.910;2023-09-18T07:11:10;19.30;99.90
33095;DHT22;19459;53.044;8.910;2023-09-18T07:13:37;19.30;99.90
33095;DHT22;19459;53.044;8.910;2023-09-18T07:16:04;19.20;99.90
33095;DHT22;19459;53.044;8.910;2023-09-18T07:18:31;19.20;99.90
33095;DHT22;19459;53.044;8.910;2023-09-18T07:20:56;19.20;99.90
33095;DHT22;19459;53.044;8.910;2023-09-18T07:23:22;19.20;99.90
33095;DHT22;19459;53.044;8.910;2023-09-18T07:25:48;19.20;99.90
33095;DHT22;19459;53.044;8.910;2023-09-18T07:28:14;19.20;99.90
33095;DHT22;19459;53.044;8.910;2023-09-18T07:30:43;19.20;99.90
33095;DHT22;19459;53.044;8.910;2023-09-18T07:33:13;19.20;99.90
33095;DHT22;19459;53.044;8.910;2023-09-18T07:35:45;19.20;99.90
33095;DHT22;19459;53.044;8.910;2023-09-18T07:38:17;19.30;99.90
33095;DHT22;19459;53.044;8.910;2023-09-18T07:40:45;19.20;99.90
33095;DHT22;19459;53.044;8.910;2023-09-18T07:43:12;19.20;99.90
33095;DHT22;19459;53.044;8.910;2023-09-18T07:45:39;19.30;99.90
33095;DHT22;19459;53.044;8.910;2023-09-18T07:48:08;19.30;99.90
33095;DHT22;19459;53.044;8.910;2023-09-18T07:50:35;19.30;99.90
33095;DHT22;19459;53.044;8.910;2023-09-18T07:53:01;19.40;99.90
33095;DHT22;19459;53.044;8.910;2023-09-18T07:55:27;19.40;99.90
33095;DHT22;19459;53.044;8.910;2023-09-18T07:57:54;19.40;99.90
33095;DHT22;19459;53.044;8.910;2023-09-18T08:00:20;19.40;99.90
33095;DHT22;19459;53.044;8.910;2023-09-18T08:02:48;19.40;99.90
33095;DHT22;19459;53.044;8.910;2023-09-18T08:05:16;19.40;99.90
33095;DHT22;19459;53.044;8.910;2023-09-18T08:07:42;19.40;99.90
33095;DHT22;19459;53.044;8.910;2023-09-18T08:10:09;19.40;99.90
33095;DHT22;19459;53.044;8.910;2023-09-18T08:12:35;19.40;99.90
33095;DHT22;19459;53.044;8.910;2023-09-18T08:15:01;19.60;99.90
33095;DHT22;19459;53.044;8.910;2023-09-18T08:17:28;19.70;99.90
33095;DHT22;19459;53.044;8.910;2023-09-18T08:19:53;19.80;99.90
33095;DHT22;19459;53.044;8.910;2023-09-18T08:22:20;19.80;99.90
33095;DHT22;19459;53.044;8.910;2023-09-18T08:24:49;19.80;99.90
33095;DHT22;19459;53.044;8.910;2023-09-18T08:27:18;19.90;99.90
33095;DHT22;19459;53.044;8.910;2023-09-18T08:29:47;19.90;99.90
33095;DHT22;19459;53.044;8.910;2023-09-18T08:32:13;20.00;99.90
33095;DHT22;19459;53.044;8.910;2023-09-18T08:34:39;20.10;99.90
33095;DHT22;19459;53.044;8.910;2023-09-18T08:37:04;20.20;99.90
33095;DHT22;19459;53.044;8.910;2023-09-18T08:39:30;20.30;99.90
33095;DHT22;19459;53.044;8.910;2023-09-18T08:42:04;20.50;99.90
33095;DHT22;19459;53.044;8.910;2023-09-18T08:44:30;20.60;99.90
33095;DHT22;19459;53.044;8.910;2023-09-18T08:46:57;20.80;99.90
33095;DHT22;19459;53.044;8.910;2023-09-18T08:49:24;20.90;99.90
33095;DHT22;19459;53.044;8.910;2023-09-18T08:51:51;21.10;99.90
33095;DHT22;19459;53.044;8.910;2023-09-18T08:54:19;21.20;99.90
33095;DHT22;19459;53.044;8.910;2023-09-18T08:56:47;21.30;99.90
33095;DHT22;19459;53.044;8.910;2023-09-18T08:59:13;21.50;99.90
33095;DHT22;19459;53.044;8.910;2023-09-18T09:01:39;21.60;99.90
33095;DHT22;19459;53.044;8.910;2023-09-18T09:04:05;21.70;99.90
33095;DHT22;19459;53.044;8.910;2023-09-18T09:06:31;21.80;99.90
33095;DHT22;19459;53.044;8.910;2023-09-18T09:08:57;21.80;99.90
33095;DHT22;19459;53.044;8.910;2023-09-18T09:11:23;21.90;99.90
33095;DHT22;19459;53.044;8.910;2023-09-18T09:14:11;21.90;99.90
33095;DHT22;19459;53.044;8.910;2023-09-18T09:16:50;22.00;99.90
33095;DHT22;19459;53.044;8.910;2023-09-18T09:19:17;22.00;99.90
33095;DHT22;19459;53.044;8.910;2023-09-18T09:21:45;22.00;99.90
33095;DHT22;19459;53.044;8.910;2023-09-18T09:24:12;22.10;99.90
33095;DHT22;19459;53.044;8.910;2023-09-18T09:26:41;22.20;99.90
33095;DHT22;19459;53.044;8.910;2023-09-18T09:29:18;22.20;99.90
33095;DHT22;19459;53.044;8.910;2023-09-18T09:31:46;22.30;99.90
33095;DHT22;19459;53.044;8.910;2023-09-18T09:34:12;22.30;99.90
33095;DHT22;19459;53.044;8.910;2023-09-18T09:36:56;22.30;99.90
33095;DHT22;19459;53.044;8.910;2023-09-18T09:39:23;22.40;99.90
33095;DHT22;19459;53.044;8.910;2023-09-18T09:41:53;22.40;99.90
33095;DHT22;19459;53.044;8.910;2023-09-18T09:44:19;22.40;99.90
33095;DHT22;19459;53.044;8.910;2023-09-18T09:46:49;22.50;99.90
33095;DHT22;19459;53.044;8.910;2023-09-18T09:49:17;22.40;99.90
33095;DHT22;19459;53.044;8.910;2023-09-18T09:51:45;22.50;99.90
33095;DHT22;19459;53.044;8.910;2023-09-18T09:54:12;22.40;99.90
33095;DHT22;19459;53.044;8.910;2023-09-18T09:56:44;22.50;99.90
33095;DHT22;19459;53.044;8.910;2023-09-18T09:59:16;22.40;99.90
33095;DHT22;19459;53.044;8.910;2023-09-18T10:01:46;22.50;99.90
33095;DHT22;19459;53.044;8.910;2023-09-18T10:04:16;22.60;99.90
33095;DHT22;19459;53.044;8.910;2023-09-18T10:06:51;22.50;99.90
33095;DHT22;19459;53.044;8.910;2023-09-18T10:09:19;22.50;99.90
33095;DHT22;19459;53.044;8.910;2023-09-18T10:11:51;22.50;99.90
33095;DHT22;19459;53.044;8.910;2023-09-18T10:14:30;22.50;99.90
33095;DHT22;19459;53.044;8.910;2023-09-18T10:17:00;22.50;99.90
33095;DHT22;19459;53.044;8.910;2023-09-18T10:22:38;22.50;99.90
33095;DHT22;19459;53.044;8.910;2023-09-18T10:25:14;22.50;99.90
33095;DHT22;19459;53.044;8.910;2023-09-18T10:27:52;22.60;99.90
33095;DHT22;19459;53.044;8.910;2023-09-18T10:30:20;22.50;99.90
33095;DHT22;19459;53.044;8.910;2023-09-18T10:32:50;22.50;99.90
33095;DHT22;19459;53.044;8.910;2023-09-18T10:35:17;22.60;99.90
33095;DHT22;19459;53.044;8.910;2023-09-18T10:37:45;22.60;99.90
33095;DHT22;19459;53.044;8.910;2023-09-18T10:40:12;22.70;99.90
33095;DHT22;19459;53.044;8.910;2023-09-18T10:42:41;22.60;99.90
33095;DHT22;19459;53.044;8.910;2023-09-18T10:45:11;22.60;99.90
33095;DHT22;19459;53.044;8.910;2023-09-18T10:47:39;22.50;99.90
33095;DHT22;19459;53.044;8.910;2023-09-18T10:50:07;22.50;99.90
33095;DHT22;19459;53.044;8.910;2023-09-18T10:52:43;22.50;99.90
33095;DHT22;19459;53.044;8.910;2023-09-18T10:55:13;22.40;99.90
33095;DHT22;19459;53.044;8.910;2023-09-18T10:57:56;22.50;99.90
33095;DHT22;19459;53.044;8.910;2023-09-18T11:00:28;22.40;99.90
33095;DHT22;19459;53.044;8.910;2023-09-18T11:03:29;22.40;99.90
33095;DHT22;19459;53.044;8.910;2023-09-18T11:06:10;22.40;99.90
33095;DHT22;19459;53.044;8.910;2023-09-18T11:08:46;22.40;99.90
33095;DHT22;19459;53.044;8.910;2023-09-18T11:11:19;22.50;99.90
33095;DHT22;19459;53.044;8.910;2023-09-18T11:13:52;22.70;99.90
33095;DHT22;19459;53.044;8.910;2023-09-18T11:21:30;23.20;99.90
33095;DHT22;19459;53.044;8.910;2023-09-18T11:24:03;23.30;99.90
33095;DHT22;19459;53.044;8.910;2023-09-18T11:26:39;23.40;99.90
33095;DHT22;19459;53.044;8.910;2023-09-18T11:29:13;23.50;99.90
33095;DHT22;19459;53.044;8.910;2023-09-18T11:31:50;23.40;99.90
33095;DHT22;19459;53.044;8.910;2023-09-18T11:34:24;23.40;99.90
33095;DHT22;19459;53.044;8.910;2023-09-18T11:36:52;23.40;99.90
33095;DHT22;19459;53.044;8.910;2023-09-18T11:39:38;23.60;99.90
33095;DHT22;19459;53.044;8.910;2023-09-18T11:44:39;23.50;99.90
33095;DHT22;19459;53.044;8.910;2023-09-18T11:47:19;23.50;99.90
33095;DHT22;19459;53.044;8.910;2023-09-18T11:49:54;23.50;99.90
33095;DHT22;19459;53.044;8.910;2023-09-18T11:52:25;23.60;99.90
33095;DHT22;19459;53.044;8.910;2023-09-18T11:54:53;23.60;99.90
33095;DHT22;19459;53.044;8.910;2023-09-18T11:57:20;23.50;99.90
33095;DHT22;19459;53.044;8.910;2023-09-18T11:59:47;23.40;99.90
33095;DHT22;19459;53.044;8.910;2023-09-18T12:02:14;23.40;99.90
33095;DHT22;19459;53.044;8.910;2023-09-18T12:05:14;23.30;99.90
33095;DHT22;19459;53.044;8.910;2023-09-18T12:07:45;23.30;99.90
33095;DHT22;19459;53.044;8.910;2023-09-18T12:10:14;23.20;99.90
33095;DHT22;19459;53.044;8.910;2023-09-18T12:12:42;23.10;99.90
33095;DHT22;19459;53.044;8.910;2023-09-18T12:15:11;23.20;99.90
33095;DHT22;19459;53.044;8.910;2023-09-18T12:17:37;23.30;99.90
33095;DHT22;19459;53.044;8.910;2023-09-18T12:20:05;23.80;99.90
33095;DHT22;19459;53.044;8.910;2023-09-18T12:22:32;24.10;99.90
33095;DHT22;19459;53.044;8.910;2023-09-18T12:25:11;24.00;99.90
33095;DHT22;19459;53.044;8.910;2023-09-18T12:27:39;24.10;99.90
33095;DHT22;19459;53.044;8.910;2023-09-18T12:30:08;24.40;99.90
33095;DHT22;19459;53.044;8.910;2023-09-18T12:32:39;24.60;99.90
33095;DHT22;19459;53.044;8.910;2023-09-18T12:35:08;24.90;99.90
33095;DHT22;19459;53.044;8.910;2023-09-18T12:37:35;25.10;99.90
33095;DHT22;19459;53.044;8.910;2023-09-18T12:40:05;25.60;99.90
33095;DHT22;19459;53.044;8.910;2023-09-18T12:42:37;25.50;99.90
33095;DHT22;19459;53.044;8.910;2023-09-18T12:45:07;25.30;99.90
33095;DHT22;19459;53.044;8.910;2023-09-18T12:47:34;25.40;99.90
33095;DHT22;19459;53.044;8.910;2023-09-18T12:50:05;25.60;99.90
33095;DHT22;19459;53.044;8.910;2023-09-18T12:52:36;26.00;99.90
33095;DHT22;19459;53.044;8.910;2023-09-18T12:55:02;25.50;99.90
33095;DHT22;19459;53.044;8.910;2023-09-18T12:57:32;25.40;99.90
33095;DHT22;19459;53.044;8.910;2023-09-18T12:59:58;25.30;99.90
33095;DHT22;19459;53.044;8.910;2023-09-18T13:02:24;25.10;99.90
33095;DHT22;19459;53.044;8.910;2023-09-18T13:04:56;25.30;99.90
33095;DHT22;19459;53.044;8.910;2023-09-18T13:07:24;25.20;99.90
33095;DHT22;19459;53.044;8.910;2023-09-18T13:10:03;24.90;99.90
33095;DHT22;19459;53.044;8.910;2023-09-18T13:12:50;24.90;99.90
33095;DHT22;19459;53.044;8.910;2023-09-18T13:15:31;24.40;99.90
33095;DHT22;19459;53.044;8.910;2023-09-18T13:18:00;24.10;99.90
33095;DHT22;19459;53.044;8.910;2023-09-18T13:20:33;23.90;99.90
33095;DHT22;19459;53.044;8.910;2023-09-18T13:23:00;23.90;99.90
33095;DHT22;19459;53.044;8.910;2023-09-18T13:25:33;23.90;99.90
33095;DHT22;19459;53.044;8.910;2023-09-18T13:28:06;24.00;99.90
33095;DHT22;19459;53.044;8.910;2023-09-18T13:30:33;24.00;99.90
33095;DHT22;19459;53.044;8.910;2023-09-18T13:33:07;24.10;99.90
33095;DHT22;19459;53.044;8.910;2023-09-18T13:35:41;24.10;99.90
33095;DHT22;19459;53.044;8.910;2023-09-18T13:38:09;24.10;99.90
33095;DHT22;19459;53.044;8.910;2023-09-18T13:40:37;24.30;99.90
33095;DHT22;19459;53.044;8.910;2023-09-18T13:43:05;24.80;99.90
33095;DHT22;19459;53.044;8.910;2023-09-18T13:45:33;25.30;99.90
33095;DHT22;19459;53.044;8.910;2023-09-18T13:48:01;25.80;99.90
33095;DHT22;19459;53.044;8.910;2023-09-18T13:50:31;26.20;99.90
33095;DHT22;19459;53.044;8.910;2023-09-18T13:52:57;26.20;99.90
33095;DHT22;19459;53.044;8.910;2023-09-18T13:55:25;25.50;99.90
33095;DHT22;19459;53.044;8.910;2023-09-18T13:57:51;25.30;99.90
33095;DHT22;19459;53.044;8.910;2023-09-18T14:00:17;25.40;99.90
33095;DHT22;19459;53.044;8.910;2023-09-18T14:02:43;25.00;99.90
33095;DHT22;19459;53.044;8.910;2023-09-18T14:05:09;25.00;99.90
33095;DHT22;19459;53.044;8.910;2023-09-18T14:07:37;25.00;99.90
33095;DHT22;19459;53.044;8.910;2023-09-18T14:10:07;25.10;99.90
33095;DHT22;19459;53.044;8.910;2023-09-18T14:12:38;24.90;99.90
33095;DHT22;19459;53.044;8.910;2023-09-18T14:15:09;25.00;99.90
33095;DHT22;19459;53.044;8.910;2023-09-18T14:17:35;24.80;99.90
33095;DHT22;19459;53.044;8.910;2023-09-18T14:20:03;24.80;99.90
33095;DHT22;19459;53.044;8.910;2023-09-18T14:22:34;25.00;99.90
33095;DHT22;19459;53.044;8.910;2023-09-18T14:25:00;25.10;99.90
33095;DHT22;19459;53.044;8.910;2023-09-18T14:27:29;25.10;99.90
33095;DHT22;19459;53.044;8.910;2023-09-18T14:29:55;25.30;99.90
33095;DHT22;19459;53.044;8.910;2023-09-18T14:32:22;25.50;99.90
33095;DHT22;19459;53.044;8.910;2023-09-18T14:34:47;25.40;99.90
33095;DHT22;19459;53.044;8.910;2023-09-18T14:37:13;25.60;99.90
33095;DHT22;19459;53.044;8.910;2023-09-18T14:39:41;25.60;99.90
33095;DHT22;19459;53.044;8.910;2023-09-18T14:42:07;25.50;99.90
33095;DHT22;19459;53.044;8.910;2023-09-18T14:44:33;25.40;99.90
33095;DHT22;19459;53.044;8.910;2023-09-18T14:46:59;25.50;99.90
33095;DHT22;19459;53.044;8.910;2023-09-18T14:49:25;25.50;99.90
33095;DHT22;19459;53.044;8.910;2023-09-18T14:51:53;25.40;99.90
33095;DHT22;19459;53.044;8.910;2023-09-18T14:54:22;25.40;99.90
33095;DHT22;19459;53.044;8.910;2023-09-18T14:56:48;25.10;99.90
33095;DHT22;19459;53.044;8.910;2023-09-18T14:59:13;24.80;99.90
33095;DHT22;19459;53.044;8.910;2023-09-18T15:01:39;24.60;99.90
33095;DHT22;19459;53.044;8.910;2023-09-18T15:04:08;24.80;99.90
33095;DHT22;19459;53.044;8.910;2023-09-18T15:06:34;24.80;99.90
33095;DHT22;19459;53.044;8.910;2023-09-18T15:09:00;24.90;99.90
33095;DHT22;19459;53.044;8.910;2023-09-18T15:11:28;24.90;99.90
33095;DHT22;19459;53.044;8.910;2023-09-18T15:13:54;24.80;99.90
33095;DHT22;19459;53.044;8.910;2023-09-18T15:16:20;24.70;99.90
33095;DHT22;19459;53.044;8.910;2023-09-18T15:18:45;24.70;99.90
33095;DHT22;19459;53.044;8.910;2023-09-18T15:21:11;24.70;99.90
33095;DHT22;19459;53.044;8.910;2023-09-18T15:23:37;24.80;99.90
33095;DHT22;19459;53.044;8.910;2023-09-18T15:26:03;24.80;99.90
33095;DHT22;19459;53.044;8.910;2023-09-18T15:28:29;24.70;99.90
33095;DHT22;19459;53.044;8.910;2023-09-18T15:30:55;24.80;99.90
33095;DHT22;19459;53.044;8.910;2023-09-18T15:33:22;24.80;99.90
33095;DHT22;19459;53.044;8.910;2023-09-18T15:35:48;24.70;99.90
33095;DHT22;19459;53.044;8.910;2023-09-18T15:38:15;24.60;99.90
33095;DHT22;19459;53.044;8.910;2023-09-18T15:40:41;24.40;99.90
33095;DHT22;19459;53.044;8.910;2023-09-18T15:43:07;24.30;99.90
33095;DHT22;19459;53.044;8.910;2023-09-18T15:45:32;24.30;99.90
33095;DHT22;19459;53.044;8.910;2023-09-18T15:48:01;24.30;99.90